createdAt,value
2016-10-15T00:00:08.880Z,7.61
2016-10-15T00:01:08.891Z,7.61
2016-10-15T00:02:08.917Z,7.57
2016-10-15T00:03:08.934Z,7.68
2016-10-15T00:04:08.950Z,7.69
2016-10-15T00:05:08.973Z,7.68
2016-10-15T00:06:23.918Z,7.77
2016-10-15T00:07:09.073Z,7.58
2016-10-15T00:08:09.027Z,7.61
2016-10-15T00:09:09.053Z,7.58
2016-10-15T00:10:09.079Z,7.58
2016-10-15T00:11:09.089Z,7.67
2016-10-15T00:12:09.115Z,7.77
2016-10-15T00:13:09.127Z,7.58
2016-10-15T00:14:09.154Z,7.58
2016-10-15T00:15:09.168Z,7.74
2016-10-15T00:16:09.185Z,7.68
2016-10-15T00:17:24.135Z,7.6
2016-10-15T00:18:09.226Z,7.63
2016-10-15T00:19:09.265Z,7.61
2016-10-15T00:20:09.273Z,7.61
2016-10-15T00:21:09.293Z,7.55
2016-10-15T00:22:24.226Z,7.63
2016-10-15T00:23:09.578Z,7.68
2016-10-15T00:24:09.351Z,7.57
2016-10-15T00:25:09.366Z,7.67
2016-10-15T00:26:09.392Z,7.74
2016-10-15T00:27:09.505Z,7.71
2016-10-15T00:28:09.431Z,7.67
2016-10-15T00:29:09.449Z,7.68
2016-10-15T00:30:09.466Z,7.69
2016-10-15T00:32:09.502Z,7.6
2016-10-15T00:33:24.449Z,7.68
2016-10-15T00:34:09.546Z,7.69
2016-10-15T00:35:09.562Z,7.77
2016-10-15T00:36:09.589Z,7.68
2016-10-15T00:37:24.524Z,7.63
2016-10-15T00:38:24.547Z,7.64
2016-10-15T00:39:09.955Z,7.69
2016-10-15T00:40:09.666Z,7.79
2016-10-15T00:41:09.681Z,7.71
2016-10-15T00:42:09.780Z,7.61
2016-10-15T00:43:09.722Z,7.61
2016-10-15T00:44:09.748Z,7.79
2016-10-15T00:45:09.762Z,7.71
2016-10-15T00:46:24.708Z,7.67
2016-10-15T00:47:09.850Z,7.58
2016-10-15T00:48:09.823Z,7.71
2016-10-15T00:49:24.764Z,7.67
2016-10-15T00:51:09.891Z,7.55
2016-10-15T00:52:09.901Z,7.63
2016-10-15T00:53:24.842Z,7.67
2016-10-15T00:55:09.962Z,7.61
2016-10-15T00:56:09.980Z,7.71
2016-10-15T00:57:09.998Z,7.57
2016-10-15T00:58:10.020Z,7.67
2016-10-15T00:59:10.042Z,7.74
2016-10-15T01:00:10.058Z,7.72
2016-10-15T01:01:10.079Z,7.77
2016-10-15T01:02:10.115Z,7.68
2016-10-15T01:03:10.121Z,7.69
2016-10-15T01:04:10.136Z,7.67
2016-10-15T01:05:10.162Z,7.79
2016-10-15T01:06:25.148Z,7.67
2016-10-15T01:07:10.526Z,7.61
2016-10-15T01:08:10.243Z,7.63
2016-10-15T01:09:10.237Z,7.68
2016-10-15T01:10:10.252Z,7.6
2016-10-15T01:11:10.279Z,7.71
2016-10-15T01:12:10.289Z,7.67
2016-10-15T01:13:10.621Z,7.61
2016-10-15T01:14:10.334Z,7.69
2016-10-15T01:15:10.354Z,7.6
2016-10-15T01:16:10.372Z,7.61
2016-10-15T01:17:10.391Z,7.68
2016-10-15T01:18:10.415Z,7.63
2016-10-15T01:19:10.479Z,7.61
2016-10-15T01:20:25.374Z,7.63
2016-10-15T01:21:10.727Z,7.6
2016-10-15T01:22:10.488Z,7.6
2016-10-15T01:23:10.511Z,7.61
2016-10-15T01:24:10.527Z,7.68
2016-10-15T01:25:25.470Z,7.58
2016-10-15T01:26:10.572Z,7.6
2016-10-15T01:27:10.588Z,7.68
2016-10-15T01:28:10.605Z,7.63
2016-10-15T01:29:10.630Z,7.6
2016-10-15T01:30:10.648Z,7.64
2016-10-15T01:31:10.668Z,7.64
2016-10-15T01:32:10.684Z,7.53
2016-10-15T01:33:10.701Z,7.64
2016-10-15T01:34:10.726Z,7.57
2016-10-15T01:35:10.744Z,7.61
2016-10-15T01:36:10.762Z,7.57
2016-10-15T01:37:10.789Z,7.57
2016-10-15T01:38:10.821Z,7.6
2016-10-15T01:39:10.835Z,7.64
2016-10-15T01:40:25.763Z,7.64
2016-10-15T01:41:25.790Z,7.67
2016-10-15T01:42:10.883Z,7.72
2016-10-15T01:43:10.904Z,7.58
2016-10-15T01:44:10.923Z,7.64
2016-10-15T01:45:10.941Z,7.6
2016-10-15T01:46:10.966Z,7.64
2016-10-15T01:47:10.982Z,7.63
2016-10-15T01:48:11.002Z,7.57
2016-10-15T01:49:11.022Z,7.58
2016-10-15T01:50:11.042Z,7.75
2016-10-15T01:51:11.063Z,7.6
2016-10-15T01:52:11.077Z,7.61
2016-10-15T01:53:26.023Z,7.64
2016-10-15T01:54:11.123Z,7.57
2016-10-15T01:55:11.137Z,7.55
2016-10-15T01:56:11.162Z,7.58
2016-10-15T01:57:26.104Z,7.68
2016-10-15T01:58:11.201Z,7.63
2016-10-15T01:59:11.221Z,7.63
2016-10-15T02:00:11.242Z,7.52
2016-10-15T02:01:11.258Z,7.58
2016-10-15T02:02:11.281Z,7.58
2016-10-15T02:03:11.297Z,7.71
2016-10-15T02:04:11.314Z,7.53
2016-10-15T02:05:11.333Z,7.63
2016-10-15T02:06:11.360Z,7.63
2016-10-15T02:07:11.378Z,7.58
2016-10-15T02:09:11.466Z,7.69
2016-10-15T02:10:11.437Z,7.55
2016-10-15T02:11:11.450Z,7.57
2016-10-15T02:12:11.484Z,7.61
2016-10-15T02:13:26.413Z,7.58
2016-10-15T02:14:11.516Z,7.63
2016-10-15T02:15:11.537Z,7.57
2016-10-15T02:16:11.551Z,7.6
2016-10-15T02:17:11.576Z,7.57
2016-10-15T02:18:11.590Z,7.57
2016-10-15T02:19:11.615Z,7.61
2016-10-15T02:20:11.634Z,7.55
2016-10-15T02:21:11.653Z,7.57
2016-10-15T02:22:11.675Z,7.5
2016-10-15T02:23:11.700Z,7.6
2016-10-15T02:24:11.715Z,7.55
2016-10-15T02:25:11.731Z,7.63
2016-10-15T02:26:11.753Z,7.53
2016-10-15T02:27:11.769Z,7.49
2016-10-15T02:28:26.711Z,7.5
2016-10-15T02:30:11.826Z,7.52
2016-10-15T02:31:11.853Z,7.46
2016-10-15T02:32:11.868Z,7.5
2016-10-15T02:33:11.892Z,7.52
2016-10-15T02:34:11.909Z,7.49
2016-10-15T02:35:11.930Z,7.5
2016-10-15T02:36:11.951Z,7.5
2016-10-15T02:37:11.967Z,7.52
2016-10-15T02:38:11.986Z,7.52
2016-10-15T02:40:12.030Z,7.5
2016-10-15T02:41:12.047Z,7.46
2016-10-15T02:42:12.064Z,7.53
2016-10-15T02:43:12.093Z,7.5
2016-10-15T02:44:12.111Z,7.5
2016-10-15T02:45:12.129Z,7.52
2016-10-15T02:46:12.146Z,7.46
2016-10-15T02:47:12.163Z,7.48
2016-10-15T02:48:12.189Z,7.45
2016-10-15T02:49:12.202Z,7.48
2016-10-15T02:51:12.499Z,7.49
2016-10-15T02:52:12.261Z,7.48
2016-10-15T02:53:12.280Z,7.52
2016-10-15T02:54:12.313Z,7.5
2016-10-15T02:55:27.248Z,7.5
2016-10-15T02:56:12.337Z,7.52
2016-10-15T02:57:12.366Z,7.5
2016-10-15T02:58:12.375Z,7.43
2016-10-15T02:59:12.401Z,7.43
2016-10-15T03:00:27.346Z,7.34
2016-10-15T03:01:12.439Z,7.45
2016-10-15T03:02:12.460Z,7.4
2016-10-15T03:03:12.481Z,7.5
2016-10-15T03:04:12.750Z,7.45
2016-10-15T03:05:12.530Z,7.42
2016-10-15T03:06:12.542Z,7.5
2016-10-15T03:08:12.577Z,7.43
2016-10-15T03:09:12.850Z,7.4
2016-10-15T03:10:12.620Z,7.4
2016-10-15T03:12:12.659Z,7.4
2016-10-15T03:13:12.674Z,7.39
2016-10-15T03:14:12.698Z,7.45
2016-10-15T03:15:12.718Z,7.45
2016-10-15T03:16:27.656Z,7.5
2016-10-15T03:17:12.759Z,7.49
2016-10-15T03:18:12.776Z,7.5
2016-10-15T03:19:12.793Z,7.46
2016-10-15T03:20:12.811Z,7.48
2016-10-15T03:21:12.835Z,7.45
2016-10-15T03:22:12.851Z,7.35
2016-10-15T03:23:12.875Z,7.37
2016-10-15T03:24:12.889Z,7.35
2016-10-15T03:25:13.020Z,7.39
2016-10-15T03:26:12.941Z,7.4
2016-10-15T03:27:27.877Z,7.32
2016-10-15T03:28:12.973Z,7.32
2016-10-15T03:29:12.991Z,7.35
2016-10-15T03:30:27.930Z,7.4
2016-10-15T03:31:13.031Z,7.37
2016-10-15T03:32:27.991Z,7.37
2016-10-15T03:33:27.987Z,7.4
2016-10-15T03:34:13.090Z,7.43
2016-10-15T03:35:13.111Z,7.46
2016-10-15T03:36:13.127Z,7.49
2016-10-15T03:37:13.147Z,7.45
2016-10-15T03:38:13.364Z,7.42
2016-10-15T03:39:13.190Z,7.48
2016-10-15T03:41:13.229Z,7.42
2016-10-15T03:42:13.252Z,7.46
2016-10-15T03:43:13.266Z,7.35
2016-10-15T03:44:13.279Z,7.43
2016-10-15T03:45:13.308Z,7.42
2016-10-15T03:46:13.318Z,7.32
2016-10-15T03:47:13.350Z,7.34
2016-10-15T03:48:28.283Z,7.39
2016-10-15T03:49:13.386Z,7.37
2016-10-15T03:50:13.500Z,7.4
2016-10-15T03:51:13.420Z,7.46
2016-10-15T03:52:13.442Z,7.42
2016-10-15T03:53:13.461Z,7.49
2016-10-15T03:54:13.486Z,7.55
2016-10-15T03:55:13.503Z,7.45
2016-10-15T03:56:13.826Z,7.48
2016-10-15T03:57:13.537Z,7.57
2016-10-15T03:58:13.561Z,7.49
2016-10-15T03:59:13.580Z,7.5
2016-10-15T04:00:13.597Z,7.48
2016-10-15T04:01:13.624Z,7.53
2016-10-15T04:02:28.561Z,7.57
2016-10-15T04:03:28.582Z,7.52
2016-10-15T04:04:13.680Z,7.57
2016-10-15T04:05:13.705Z,7.46
2016-10-15T04:06:13.720Z,7.61
2016-10-15T04:07:13.743Z,7.72
2016-10-15T04:08:13.760Z,7.6
2016-10-15T04:09:13.776Z,7.58
2016-10-15T04:10:13.798Z,7.53
2016-10-15T04:11:13.814Z,7.71
2016-10-15T04:12:13.831Z,7.64
2016-10-15T04:13:13.874Z,7.63
2016-10-15T04:14:28.798Z,7.58
2016-10-15T04:15:13.894Z,7.58
2016-10-15T04:16:28.836Z,7.61
2016-10-15T04:17:13.933Z,7.67
2016-10-15T04:18:13.952Z,7.58
2016-10-15T04:20:13.992Z,7.61
2016-10-15T04:21:14.010Z,7.61
2016-10-15T04:22:14.039Z,7.57
2016-10-15T04:23:14.053Z,7.57
2016-10-15T04:24:14.082Z,7.61
2016-10-15T04:25:14.348Z,7.63
2016-10-15T04:26:14.114Z,7.63
2016-10-15T04:27:14.131Z,7.63
2016-10-15T04:28:14.151Z,7.58
2016-10-15T04:29:14.169Z,7.69
2016-10-15T04:30:14.187Z,7.6
2016-10-15T04:31:29.133Z,7.67
2016-10-15T04:32:14.225Z,7.63
2016-10-15T04:33:29.168Z,7.68
2016-10-15T04:34:14.270Z,7.74
2016-10-15T04:35:29.213Z,7.68
2016-10-15T04:36:14.307Z,7.61
2016-10-15T04:37:14.326Z,7.64
2016-10-15T04:38:14.395Z,7.72
2016-10-15T04:39:14.415Z,7.67
2016-10-15T04:40:14.385Z,7.69
2016-10-15T04:41:14.415Z,7.74
2016-10-15T04:42:14.727Z,7.8
2016-10-15T04:43:14.447Z,7.72
2016-10-15T04:44:14.463Z,7.64
2016-10-15T04:45:14.484Z,7.82
2016-10-15T04:46:14.509Z,7.82
2016-10-15T04:47:14.528Z,7.8
2016-10-15T04:48:14.543Z,7.72
2016-10-15T04:49:14.563Z,7.63
2016-10-15T04:50:14.838Z,7.74
2016-10-15T04:51:29.523Z,7.74
2016-10-15T04:52:14.616Z,7.69
2016-10-15T04:53:14.645Z,7.69
2016-10-15T04:54:14.661Z,7.69
2016-10-15T04:55:14.685Z,7.67
2016-10-15T04:56:14.699Z,7.68
2016-10-15T04:57:14.722Z,7.6
2016-10-15T04:58:14.745Z,7.79
2016-10-15T04:59:14.767Z,7.79
2016-10-15T05:00:30.008Z,7.71
2016-10-15T05:01:14.810Z,7.63
2016-10-15T05:02:29.744Z,7.77
2016-10-15T05:03:14.843Z,7.79
2016-10-15T05:04:29.781Z,7.82
2016-10-15T05:05:14.873Z,7.77
2016-10-15T05:06:14.903Z,7.68
2016-10-15T05:07:29.835Z,7.67
2016-10-15T05:08:14.933Z,7.72
2016-10-15T05:09:14.958Z,7.64
2016-10-15T05:10:14.975Z,7.67
2016-10-15T05:11:14.995Z,7.67
2016-10-15T05:14:15.052Z,7.75
2016-10-15T05:15:15.080Z,7.71
2016-10-15T05:16:15.090Z,7.8
2016-10-15T05:17:15.111Z,7.67
2016-10-15T05:18:15.130Z,7.72
2016-10-15T05:19:15.150Z,7.74
2016-10-15T05:20:15.173Z,7.63
2016-10-15T05:21:15.189Z,7.63
2016-10-15T05:22:30.131Z,7.61
2016-10-15T05:23:30.155Z,7.61
2016-10-15T05:24:15.252Z,7.67
2016-10-15T05:25:15.269Z,7.69
2016-10-15T05:26:15.291Z,7.68
2016-10-15T05:27:15.307Z,7.71
2016-10-15T05:28:15.325Z,7.58
2016-10-15T05:29:15.348Z,7.61
2016-10-15T05:30:15.369Z,7.57
2016-10-15T05:31:15.396Z,7.77
2016-10-15T05:32:15.412Z,7.58
2016-10-15T05:33:15.735Z,7.75
2016-10-15T05:35:15.463Z,7.68
2016-10-15T05:36:15.741Z,7.6
2016-10-15T05:37:15.509Z,7.63
2016-10-15T05:38:30.450Z,7.6
2016-10-15T05:39:15.550Z,7.6
2016-10-15T05:40:15.868Z,7.6
2016-10-15T05:41:15.591Z,7.64
2016-10-15T05:42:15.610Z,7.67
2016-10-15T05:43:15.875Z,7.72
2016-10-15T05:44:15.648Z,7.69
2016-10-15T05:45:15.665Z,7.61
2016-10-15T05:46:15.686Z,7.68
2016-10-15T05:47:15.701Z,7.58
2016-10-15T05:49:15.742Z,7.69
2016-10-15T05:50:15.768Z,7.77
2016-10-15T05:51:15.779Z,7.74
2016-10-15T05:52:15.804Z,7.79
2016-10-15T05:53:15.828Z,7.83
2016-10-15T05:54:16.092Z,7.8
2016-10-15T05:55:15.863Z,7.83
2016-10-15T05:56:16.175Z,7.9
2016-10-15T05:57:15.905Z,7.83
2016-10-15T05:58:15.916Z,7.89
2016-10-15T05:59:15.942Z,7.89
2016-10-15T06:00:15.972Z,7.92
2016-10-15T06:01:15.978Z,7.97
2016-10-15T06:02:16.001Z,7.93
2016-10-15T06:03:30.944Z,7.89
2016-10-15T06:04:16.041Z,8.05
2016-10-15T06:05:16.053Z,8.02
2016-10-15T06:06:31.254Z,7.98
2016-10-15T06:07:16.102Z,8.05
2016-10-15T06:08:16.124Z,8.04
2016-10-15T06:09:16.140Z,8.04
2016-10-15T06:10:31.079Z,8.11
2016-10-15T06:11:16.184Z,8.07
2016-10-15T06:12:16.199Z,8.11
2016-10-15T06:13:16.214Z,8.2
2016-10-15T06:14:16.239Z,8.2
2016-10-15T06:15:16.255Z,8.23
2016-10-15T06:16:16.280Z,8.26
2016-10-15T06:17:16.299Z,8.23
2016-10-15T06:18:16.565Z,8.33
2016-10-15T06:19:16.337Z,8.37
2016-10-15T06:20:16.365Z,8.41
2016-10-15T06:21:31.300Z,8.34
2016-10-15T06:22:16.396Z,8.4
2016-10-15T06:23:16.672Z,8.44
2016-10-15T06:24:16.441Z,8.38
2016-10-15T06:25:16.457Z,8.47
2016-10-15T06:26:31.399Z,8.47
2016-10-15T06:27:16.503Z,8.41
2016-10-15T06:28:16.515Z,8.38
2016-10-15T06:29:16.539Z,8.41
2016-10-15T06:30:16.557Z,8.41
2016-10-15T06:31:16.579Z,8.38
2016-10-15T06:32:16.596Z,8.45
2016-10-15T06:33:16.639Z,8.47
2016-10-15T06:34:16.643Z,8.41
2016-10-15T06:35:16.660Z,8.47
2016-10-15T06:36:16.683Z,8.41
2016-10-15T06:37:16.701Z,8.44
2016-10-15T06:38:16.722Z,8.44
2016-10-15T06:39:16.736Z,8.44
2016-10-15T06:40:16.763Z,8.41
2016-10-15T06:41:16.779Z,8.45
2016-10-15T06:42:31.723Z,8.41
2016-10-15T06:43:16.821Z,8.36
2016-10-15T06:44:16.838Z,8.44
2016-10-15T06:45:16.857Z,8.48
2016-10-15T06:46:16.886Z,8.43
2016-10-15T06:47:16.905Z,8.53
2016-10-15T06:48:16.921Z,8.44
2016-10-15T06:49:16.943Z,8.48
2016-10-15T06:51:16.985Z,8.53
2016-10-15T06:52:17.025Z,8.48
2016-10-15T06:53:17.018Z,8.52
2016-10-15T06:55:17.071Z,8.52
2016-10-15T06:56:17.080Z,8.55
2016-10-15T06:57:17.409Z,8.52
2016-10-15T06:58:32.056Z,8.53
2016-10-15T06:59:17.149Z,8.63
2016-10-15T07:01:17.185Z,8.71
2016-10-15T07:02:17.203Z,8.58
2016-10-15T07:03:17.221Z,8.61
2016-10-15T07:04:17.242Z,8.62
2016-10-15T07:05:17.266Z,8.62
2016-10-15T07:06:17.285Z,8.7
2016-10-15T07:07:17.302Z,8.68
2016-10-15T07:08:17.329Z,8.61
2016-10-15T07:09:17.349Z,8.73
2016-10-15T07:10:17.367Z,8.66
2016-10-15T07:11:32.311Z,8.68
2016-10-15T07:12:17.408Z,8.59
2016-10-15T07:13:32.348Z,8.73
2016-10-15T07:14:17.447Z,8.63
2016-10-15T07:15:17.470Z,8.77
2016-10-15T07:16:17.488Z,8.8
2016-10-15T07:17:17.516Z,8.92
2016-10-15T07:18:17.536Z,8.81
2016-10-15T07:19:17.553Z,8.94
2016-10-15T07:20:17.582Z,8.89
2016-10-15T07:21:17.594Z,8.87
2016-10-15T07:22:17.612Z,8.91
2016-10-15T07:23:17.630Z,8.96
2016-10-15T07:24:17.959Z,8.95
2016-10-15T07:25:17.682Z,8.98
2016-10-15T07:26:17.689Z,8.95
2016-10-15T07:27:17.722Z,9.08
2016-10-15T07:28:32.654Z,9.04
2016-10-15T07:29:17.770Z,9.08
2016-10-15T07:30:17.773Z,9.13
2016-10-15T07:31:17.793Z,9.08
2016-10-15T07:32:32.749Z,9.14
2016-10-15T07:33:17.836Z,9.14
2016-10-15T07:34:17.853Z,9.23
2016-10-15T07:35:17.876Z,9.13
2016-10-15T07:36:17.907Z,9.11
2016-10-15T07:37:17.910Z,9.11
2016-10-15T07:38:17.937Z,9.26
2016-10-15T07:39:18.254Z,9.14
2016-10-15T07:40:17.981Z,9.14
2016-10-15T07:41:17.997Z,9.26
2016-10-15T07:42:18.036Z,9.28
2016-10-15T07:43:18.042Z,9.38
2016-10-15T07:44:18.065Z,9.36
2016-10-15T07:45:33.003Z,9.36
2016-10-15T07:46:18.103Z,9.35
2016-10-15T07:47:18.121Z,9.33
2016-10-15T07:48:18.150Z,9.47
2016-10-15T07:49:18.165Z,9.33
2016-10-15T07:50:18.181Z,9.35
2016-10-15T07:51:18.208Z,9.43
2016-10-15T07:52:18.225Z,9.38
2016-10-15T07:53:18.255Z,9.4
2016-10-15T07:54:18.264Z,9.32
2016-10-15T07:55:18.284Z,9.39
2016-10-15T07:56:18.313Z,9.35
2016-10-15T07:57:18.327Z,9.38
2016-10-15T07:58:33.577Z,9.39
2016-10-15T07:59:18.372Z,9.43
2016-10-15T08:00:18.393Z,9.46
2016-10-15T08:02:18.435Z,9.43
2016-10-15T08:03:18.451Z,9.5
2016-10-15T08:04:18.487Z,9.43
2016-10-15T08:05:18.797Z,9.51
2016-10-15T08:06:18.514Z,9.42
2016-10-15T08:07:18.532Z,9.61
2016-10-15T08:08:33.484Z,9.56
2016-10-15T08:09:18.574Z,9.58
2016-10-15T08:10:48.440Z,9.68
2016-10-15T08:11:18.618Z,9.69
2016-10-15T08:13:18.662Z,9.83
2016-10-15T08:14:18.684Z,9.91
2016-10-15T08:15:18.707Z,9.94
2016-10-15T08:16:18.717Z,9.99
2016-10-15T08:17:33.669Z,9.97
2016-10-15T08:18:18.763Z,10.07
2016-10-15T08:19:18.792Z,10.15
2016-10-15T08:20:18.809Z,10.22
2016-10-15T08:21:18.827Z,10.12
2016-10-15T08:22:18.855Z,10.25
2016-10-15T08:24:18.889Z,10.27
2016-10-15T08:25:18.909Z,10.27
2016-10-15T08:26:18.940Z,10.29
2016-10-15T08:28:18.981Z,10.3
2016-10-15T08:29:33.923Z,10.34
2016-10-15T08:30:19.018Z,10.36
2016-10-15T08:31:19.043Z,10.36
2016-10-15T08:32:19.063Z,10.32
2016-10-15T08:33:34.002Z,10.34
2016-10-15T08:34:19.105Z,10.47
2016-10-15T08:35:19.124Z,10.44
2016-10-15T08:36:19.149Z,10.36
2016-10-15T08:37:19.470Z,10.48
2016-10-15T08:38:19.188Z,10.56
2016-10-15T08:39:19.209Z,10.53
2016-10-15T08:40:19.228Z,10.61
2016-10-15T08:41:19.255Z,10.42
2016-10-15T08:42:19.272Z,10.48
2016-10-15T08:44:19.571Z,10.47
2016-10-15T08:45:19.336Z,10.48
2016-10-15T08:46:19.360Z,10.59
2016-10-15T08:47:19.389Z,10.48
2016-10-15T08:48:34.329Z,10.42
2016-10-15T08:49:19.426Z,10.51
2016-10-15T08:50:19.452Z,10.71
2016-10-15T08:51:19.472Z,10.74
2016-10-15T08:52:19.493Z,10.79
2016-10-15T08:53:19.511Z,10.71
2016-10-15T08:54:19.532Z,10.85
2016-10-15T08:55:19.558Z,10.86
2016-10-15T08:56:19.576Z,10.89
2016-10-15T08:57:19.593Z,11.06
2016-10-15T08:58:19.620Z,11.07
2016-10-15T08:59:19.635Z,11.03
2016-10-15T09:00:19.669Z,11.02
2016-10-15T09:01:19.692Z,11.02
2016-10-15T09:02:19.702Z,11.09
2016-10-15T09:03:19.732Z,11.19
2016-10-15T09:04:19.751Z,11.25
2016-10-15T09:05:19.774Z,11.36
2016-10-15T09:08:19.835Z,11.07
2016-10-15T09:09:19.857Z,11
2016-10-15T09:10:19.878Z,11
2016-10-15T09:11:19.904Z,11
2016-10-15T09:12:19.924Z,10.94
2016-10-15T09:13:19.945Z,11.02
2016-10-15T09:14:19.968Z,11.02
2016-10-15T09:15:19.994Z,11.07
2016-10-15T09:16:20.015Z,11.09
2016-10-15T09:17:20.037Z,11.15
2016-10-15T09:18:20.154Z,11.21
2016-10-15T09:19:20.081Z,11.24
2016-10-15T09:20:35.023Z,11.17
2016-10-15T09:21:20.120Z,11.14
2016-10-15T09:22:20.145Z,11.15
2016-10-15T09:23:20.165Z,11.19
2016-10-15T09:24:20.189Z,11.25
2016-10-15T09:25:20.219Z,11.25
2016-10-15T09:26:20.236Z,11.36
2016-10-15T09:27:20.256Z,11.35
2016-10-15T09:28:20.278Z,11.33
2016-10-15T09:29:20.295Z,11.36
2016-10-15T09:30:20.927Z,11.25
2016-10-15T09:31:20.639Z,11.32
2016-10-15T09:32:20.367Z,11.4
2016-10-15T09:33:20.390Z,11.22
2016-10-15T09:34:20.408Z,11.04
2016-10-15T09:35:35.351Z,11.14
2016-10-15T09:36:35.375Z,10.99
2016-10-15T09:37:20.471Z,11.04
2016-10-15T09:38:20.494Z,11.03
2016-10-15T09:39:20.516Z,10.99
2016-10-15T09:40:20.534Z,10.97
2016-10-15T09:41:20.565Z,11.03
2016-10-15T09:42:20.579Z,11.07
2016-10-15T09:43:20.603Z,11.07
2016-10-15T09:44:20.635Z,11.02
2016-10-15T09:45:20.639Z,10.97
2016-10-15T09:46:20.671Z,10.97
2016-10-15T09:47:20.789Z,11.03
2016-10-15T09:48:20.715Z,11.04
2016-10-15T09:49:35.656Z,11.06
2016-10-15T09:50:20.754Z,11.07
2016-10-15T09:51:20.776Z,11.09
2016-10-15T09:52:35.721Z,11.09
2016-10-15T09:53:20.822Z,11.11
2016-10-15T09:54:20.894Z,11.14
2016-10-15T09:55:20.889Z,11.1
2016-10-15T09:56:20.884Z,11.07
2016-10-15T09:57:20.907Z,11.06
2016-10-15T09:58:20.931Z,11.11
2016-10-15T09:59:20.948Z,11.02
2016-10-15T10:00:20.971Z,11.04
2016-10-15T10:01:20.995Z,10.99
2016-10-15T10:02:21.016Z,11.03
2016-10-15T10:03:21.036Z,11.07
2016-10-15T10:04:21.064Z,10.99
2016-10-15T10:05:36.004Z,11
2016-10-15T10:06:21.108Z,11.09
2016-10-15T10:07:36.046Z,11
2016-10-15T10:08:36.071Z,11.06
2016-10-15T10:09:21.173Z,11.09
2016-10-15T10:10:21.197Z,11.09
2016-10-15T10:11:21.214Z,11.14
2016-10-15T10:12:21.239Z,11.14
2016-10-15T10:13:21.308Z,11.14
2016-10-15T10:14:21.279Z,11.15
2016-10-15T10:15:21.298Z,11.14
2016-10-15T10:16:21.327Z,11.24
2016-10-15T10:17:21.394Z,11.32
2016-10-15T10:18:21.385Z,11.27
2016-10-15T10:19:21.385Z,11.24
2016-10-15T10:20:21.406Z,11.24
2016-10-15T10:21:21.427Z,11.28
2016-10-15T10:22:21.455Z,11.27
2016-10-15T10:23:36.396Z,11.27
2016-10-15T10:24:21.494Z,11.27
2016-10-15T10:25:21.518Z,11.19
2016-10-15T10:26:21.547Z,11.18
2016-10-15T10:27:21.568Z,11.27
2016-10-15T10:28:21.595Z,11.21
2016-10-15T10:29:21.609Z,11.29
2016-10-15T10:30:21.631Z,11.25
2016-10-15T10:31:21.647Z,11.25
2016-10-15T10:32:21.671Z,11.19
2016-10-15T10:33:21.694Z,11.27
2016-10-15T10:34:21.715Z,11.1
2016-10-15T10:35:36.661Z,11.06
2016-10-15T10:36:36.683Z,11.06
2016-10-15T10:37:21.786Z,11.14
2016-10-15T10:38:21.806Z,11.07
2016-10-15T10:39:21.828Z,11.09
2016-10-15T10:40:21.855Z,11.1
2016-10-15T10:41:21.871Z,11.1
2016-10-15T10:42:21.892Z,11.15
2016-10-15T10:43:21.962Z,11.25
2016-10-15T10:44:21.940Z,11.27
2016-10-15T10:45:21.959Z,11.27
2016-10-15T10:46:21.985Z,11.28
2016-10-15T10:48:22.026Z,11.28
2016-10-15T10:49:22.048Z,11.35
2016-10-15T10:50:36.992Z,11.43
2016-10-15T10:51:22.086Z,11.47
2016-10-15T10:52:22.126Z,11.43
2016-10-15T10:53:22.129Z,11.39
2016-10-15T10:54:22.158Z,11.29
2016-10-15T10:55:37.101Z,11.29
2016-10-15T10:56:22.199Z,11.27
2016-10-15T10:57:22.228Z,11.25
2016-10-15T10:58:22.244Z,11.24
2016-10-15T10:59:22.263Z,11.24
2016-10-15T11:00:22.293Z,11.27
2016-10-15T11:01:22.357Z,11.17
2016-10-15T11:04:22.378Z,11.11
2016-10-15T11:05:22.399Z,10.96
2016-10-15T11:06:22.419Z,10.97
2016-10-15T11:07:22.438Z,10.97
2016-10-15T11:08:22.465Z,10.92
2016-10-15T11:09:22.488Z,10.97
2016-10-15T11:10:22.515Z,11
2016-10-15T11:11:37.450Z,10.99
2016-10-15T11:12:22.549Z,11.06
2016-10-15T11:13:22.575Z,11.09
2016-10-15T11:14:22.599Z,11.07
2016-10-15T11:15:22.617Z,11.02
2016-10-15T11:16:22.640Z,11.06
2016-10-15T11:17:22.656Z,11.11
2016-10-15T11:18:22.687Z,11.11
2016-10-15T11:19:22.707Z,11.17
2016-10-15T11:20:22.723Z,11.1
2016-10-15T11:21:22.748Z,11.18
2016-10-15T11:22:22.768Z,11.19
2016-10-15T11:23:37.717Z,11.15
2016-10-15T11:24:22.817Z,11.17
2016-10-15T11:25:37.758Z,11.22
2016-10-15T11:26:37.777Z,11.27
2016-10-15T11:27:37.799Z,11.19
2016-10-15T11:28:22.902Z,11.25
2016-10-15T11:29:22.928Z,11.14
2016-10-15T11:30:22.946Z,11.1
2016-10-15T11:31:22.968Z,11.1
2016-10-15T11:32:22.990Z,11.22
2016-10-15T11:33:23.007Z,11.25
2016-10-15T11:34:23.029Z,11.24
2016-10-15T11:35:23.056Z,11.27
2016-10-15T11:36:23.176Z,11.27
2016-10-15T11:37:23.099Z,11.17
2016-10-15T11:38:23.391Z,11.29
2016-10-15T11:39:23.139Z,11.21
2016-10-15T11:40:23.164Z,11.32
2016-10-15T11:41:23.186Z,11.29
2016-10-15T11:42:23.201Z,11.25
2016-10-15T11:43:38.154Z,11.32
2016-10-15T11:44:23.252Z,11.35
2016-10-15T11:45:23.277Z,11.4
2016-10-15T11:46:23.297Z,11.35
2016-10-15T11:47:23.320Z,11.22
2016-10-15T11:48:23.586Z,11.27
2016-10-15T11:49:23.362Z,11.29
2016-10-15T11:50:23.382Z,11.24
2016-10-15T11:51:23.416Z,11.25
2016-10-15T11:52:23.425Z,11.22
2016-10-15T11:53:23.548Z,11.11
2016-10-15T11:54:23.467Z,11.19
2016-10-15T11:55:23.494Z,11.07
2016-10-15T11:56:23.520Z,11.21
2016-10-15T11:57:23.539Z,11.09
2016-10-15T11:58:38.482Z,11.15
2016-10-15T11:59:23.583Z,11.1
2016-10-15T12:00:23.607Z,11.06
2016-10-15T12:01:23.628Z,11.11
2016-10-15T12:02:23.663Z,11.04
2016-10-15T12:03:23.670Z,11.1
2016-10-15T12:04:23.688Z,11.09
2016-10-15T12:05:23.709Z,11.15
2016-10-15T12:06:23.734Z,11.17
2016-10-15T12:08:23.784Z,11.29
2016-10-15T12:09:23.801Z,11.22
2016-10-15T12:10:38.745Z,11.22
2016-10-15T12:11:23.841Z,11.29
2016-10-15T12:12:23.868Z,11.17
2016-10-15T12:13:23.891Z,11.18
2016-10-15T12:14:23.914Z,11.17
2016-10-15T12:15:23.934Z,11.24
2016-10-15T12:16:23.956Z,11.15
2016-10-15T12:17:23.976Z,11.24
2016-10-15T12:18:24.245Z,11.25
2016-10-15T12:19:24.016Z,11.17
2016-10-15T12:20:24.036Z,11.21
2016-10-15T12:21:24.060Z,11.24
2016-10-15T12:22:24.081Z,11.28
2016-10-15T12:23:24.101Z,11.28
2016-10-15T12:24:24.142Z,11.19
2016-10-15T12:25:24.155Z,11.21
2016-10-15T12:28:24.215Z,11.19
2016-10-15T12:29:24.238Z,11.25
2016-10-15T12:30:39.179Z,11.19
2016-10-15T12:31:24.281Z,11.24
2016-10-15T12:32:24.304Z,11.27
2016-10-15T12:33:24.326Z,11.27
2016-10-15T12:34:24.344Z,11.29
2016-10-15T12:36:24.388Z,11.27
2016-10-15T12:37:24.410Z,11.28
2016-10-15T12:38:24.434Z,11.27
2016-10-15T12:39:24.452Z,11.27
2016-10-15T12:40:24.476Z,11.27
2016-10-15T12:41:24.493Z,11.29
2016-10-15T12:42:24.522Z,11.33
2016-10-15T12:43:39.465Z,11.33
2016-10-15T12:44:24.566Z,11.35
2016-10-15T12:45:24.591Z,11.33
2016-10-15T12:46:39.531Z,11.33
2016-10-15T12:47:24.630Z,11.35
2016-10-15T12:48:24.658Z,11.4
2016-10-15T12:49:24.671Z,11.4
2016-10-15T12:50:24.694Z,11.44
2016-10-15T12:51:24.721Z,11.37
2016-10-15T12:52:24.741Z,11.39
2016-10-15T12:53:24.759Z,11.37
2016-10-15T12:54:24.788Z,11.42
2016-10-15T12:55:24.810Z,11.43
2016-10-15T12:56:24.830Z,11.43
2016-10-15T12:57:24.856Z,11.39
2016-10-15T12:58:39.795Z,11.39
2016-10-15T12:59:24.903Z,11.4
2016-10-15T13:00:39.838Z,11.33
2016-10-15T13:01:24.944Z,11.42
2016-10-15T13:02:39.884Z,11.35
2016-10-15T13:03:25.034Z,11.44
2016-10-15T13:04:25.306Z,11.44
2016-10-15T13:05:25.026Z,11.4
2016-10-15T13:06:25.050Z,11.35
2016-10-15T13:07:25.072Z,11.4
2016-10-15T13:08:25.099Z,11.32
2016-10-15T13:09:25.115Z,11.37
2016-10-15T13:10:25.441Z,11.39
2016-10-15T13:11:25.160Z,11.33
2016-10-15T13:12:25.177Z,11.39
2016-10-15T13:13:25.205Z,11.29
2016-10-15T13:14:40.150Z,11.29
2016-10-15T13:15:25.249Z,11.39
2016-10-15T13:16:25.269Z,11.24
2016-10-15T13:17:25.289Z,11.39
2016-10-15T13:18:40.237Z,11.36
2016-10-15T13:19:25.633Z,11.36
2016-10-15T13:20:25.359Z,11.35
2016-10-15T13:21:25.384Z,11.4
2016-10-15T13:22:25.401Z,11.36
2016-10-15T13:23:25.430Z,11.28
2016-10-15T13:24:25.449Z,11.32
2016-10-15T13:25:25.472Z,11.29
2016-10-15T13:26:25.488Z,11.4
2016-10-15T13:27:25.512Z,11.27
2016-10-15T13:29:25.809Z,11.28
2016-10-15T13:31:25.602Z,11.27
2016-10-15T13:32:25.628Z,11.24
2016-10-15T13:33:40.566Z,11.28
2016-10-15T13:34:25.962Z,11.17
2016-10-15T13:35:25.690Z,11.25
2016-10-15T13:36:25.712Z,11.29
2016-10-15T13:37:25.733Z,11.22
2016-10-15T13:38:25.752Z,11.35
2016-10-15T13:39:25.774Z,11.37
2016-10-15T13:40:25.801Z,11.39
2016-10-15T13:42:25.839Z,11.27
2016-10-15T13:43:25.864Z,11.35
2016-10-15T13:44:25.888Z,11.32
2016-10-15T13:45:25.905Z,11.22
2016-10-15T13:46:25.951Z,11.4